WetterOnline ( https://www.wetteronline.de )

Wetter aktuell Essen

Aktuelles Wetter: Essen (161m)

6-stündlich | Neueste Meldungen
Ortszeit Temperatur Wetter
Mo, 18.11. 19:00 5.5° C Regen
Mo, 18.11. 13:00 5.2° C Sprühregen
Mo, 18.11. 7:00 4.0° C Sprühregen
Mo, 18.11. 1:00 3.1° C Sprühregen
So, 17.11. 19:00 3.6° C leichter Regen
So, 17.11. 13:00 4.6° C bedeckt
So, 17.11. 7:00 1.9° C wolkig
So, 17.11. 1:00 3.1° C wolkenlos
Ortszeit Temperatur Wetter
Di, 19.11. 0:30 6.0° C leichter Regen
Di, 19.11. 0:20 6.0° C leichter Regen
Di, 19.11. 0:10 6.0° C leichter Regen
Di, 19.11. 0:00 6.1° C leichter Regen
Mo, 18.11. 23:50 6.1° C leichter Regen
Mo, 18.11. 23:40 6.1° C leichter Regen
Mo, 18.11. 23:30 6.2° C leichter Regen
Mo, 18.11. 23:00 6.3° C leichter Regen
Ortszeit Relative Feuchte Sichtweite
Mo, 18.11. 19:00 98% 7 km
Mo, 18.11. 13:00 100% 0.4 km
Mo, 18.11. 7:00 99% 1.5 km
Mo, 18.11. 1:00 97% 6 km
So, 17.11. 19:00 96% 5.0 km
So, 17.11. 13:00 79% 29 km
So, 17.11. 7:00 90% 15 km
So, 17.11. 1:00 87% 23 km
Ortszeit Relative Feuchte Sichtweite
Di, 19.11. 0:30 98% 10 km
Di, 19.11. 0:20 98% -
Di, 19.11. 0:10 97% -
Di, 19.11. 0:00 96% 12 km
Mo, 18.11. 23:50 96% -
Mo, 18.11. 23:40 96% -
Mo, 18.11. 23:30 96% 14 km
Mo, 18.11. 23:00 98% 6 km
Ortszeit Niederschlagsmenge Niederschlagsart
Mo, 18.11. 19:00 19 l/m2 in 12 Std. Regen
Mo, 18.11. 13:00 0.7 l/m2 in 6 Std. Sprühregen
Mo, 18.11. 7:00 14 l/m2 in 12 Std. Regen
Mo, 18.11. 1:00 13 l/m2 in 6 Std. Regen
So, 17.11. 19:00 1 l/m2 in 12 Std. Regen
So, 17.11. 13:00 0.0 l/m2 in 6 Std. -
So, 17.11. 7:00 0.0 l/m2 in 12 Std. -
So, 17.11. 1:00 0.0 l/m2 in 6 Std. -
Ortszeit Niederschlagsmenge Niederschlagsart
Di, 19.11. 0:30 0.4 l/m2 in 1 Std. -
Di, 19.11. 0:20 keine Meldung -
Di, 19.11. 0:10 keine Meldung -
Di, 19.11. 0:00 1.4 l/m2 in 1 Std. Regen
Mo, 18.11. 23:50 keine Meldung -
Mo, 18.11. 23:40 keine Meldung -
Mo, 18.11. 23:30 0.6 l/m2 in 1 Std. -
Mo, 18.11. 23:00 2.5 l/m2 in 1 Std. Regen
Ortszeit Stärke Spitze Richtung
km/h Bft. km/h Grad Sektor
Mo, 18.11. 19:00 6 1 15 260° W
Mo, 18.11. 13:00 4 1 18 200° S
Mo, 18.11. 7:00 7 2 28 320° NW
Mo, 18.11. 1:00 17 3 35 10° N
So, 17.11. 19:00 14 3 29 20° N
So, 17.11. 13:00 11 2 22 50° NO
So, 17.11. 7:00 6 1 19 100° O
So, 17.11. 1:00 7 2 24 170° S
Ortszeit Stärke Spitze Richtung
km/h Bft. km/h Grad Sektor
Di, 19.11. 0:30 11 2 22 260° W
Di, 19.11. 0:20 11 2 - 260° W
Di, 19.11. 0:10 11 2 - 260° W
Di, 19.11. 0:00 11 2 29 280° W
Mo, 18.11. 23:50 11 2 - 280° W
Mo, 18.11. 23:40 9 2 - 290° W
Mo, 18.11. 23:30 14 3 29 290° W
Mo, 18.11. 23:00 9 2 26 280° W
Ortszeit Untergrenze Bedeckung Gattung
total tief tief mittel hoch
Mo, 18.11. 19:00 180 m 8/8 8/8 - - -
Mo, 18.11. 13:00 30 m 8/8 8/8 - - -
Mo, 18.11. 7:00 30 m 8/8 8/8 - - -
Mo, 18.11. 1:00 150 m 8/8 8/8 - - -
So, 17.11. 19:00 600 m 8/8 7/8 - - -
So, 17.11. 13:00 3900 m 8/8 8/8 - - -
So, 17.11. 7:00 6600 m 6/8 6/8 - - -
So, 17.11. 1:00 - 0/8 0/8 - - -
Ortszeit Bedeckungsgrad in Achtel und Wolkenuntergrenze
Di, 19.11. 0:30 7(210m) 7(420m)
Di, 19.11. 0:20 7(210m) 7(420m)
Di, 19.11. 0:10 5(240m) 7(360m) 7(600m)
Di, 19.11. 0:00 6(270m) 7(480m) 8(780m)
Mo, 18.11. 23:50 6(270m) 7(480m) 8(780m)
Mo, 18.11. 23:40 6(270m) 7(450m) 8(750m)
Mo, 18.11. 23:30 7(210m) 7(360m) 8(750m)
Mo, 18.11. 23:00 7(120m)
Ortszeit Luftdruck NN (hPa) Tendenz (hPa in 3 Std.)
Mo, 18.11. 19:00 1007 + 0,6
Mo, 18.11. 13:00 1007 + 0,1
Mo, 18.11. 7:00 1006 + 0,5
Mo, 18.11. 1:00 1006 - 1,5
So, 17.11. 19:00 1009 - 1,0
So, 17.11. 13:00 1011 - 1,5
So, 17.11. 7:00 1013 + 0,3
So, 17.11. 1:00 1013 + 0,6
Ortszeit Luftdruck NN (hPa) Tendenz (hPa in 3 Std.)
Di, 19.11. 0:30 1011 + 2,4
Di, 19.11. 0:20 1011 keine Meldung
Di, 19.11. 0:10 1010 keine Meldung
Di, 19.11. 0:00 1010 + 2,1
Mo, 18.11. 23:50 1010 keine Meldung
Mo, 18.11. 23:40 1010 keine Meldung
Mo, 18.11. 23:30 1010 + 1,7
Mo, 18.11. 23:00 1009 + 1,4
Ortszeit Schneehöhe (cm)
Mo, 18.11. 19:00 0
Mo, 18.11. 13:00 0
Mo, 18.11. 7:00 0
Mo, 18.11. 1:00 0
So, 17.11. 19:00 0
So, 17.11. 13:00 0
So, 17.11. 7:00 0
So, 17.11. 1:00 0
Ortszeit Schneehöhe (cm)
Di, 19.11. 0:30 0
Di, 19.11. 0:20 0
Di, 19.11. 0:10 0
Di, 19.11. 0:00 0
Mo, 18.11. 23:50 0
Mo, 18.11. 23:40 0
Mo, 18.11. 23:30 0
Mo, 18.11. 23:00 0
Link zu dieser Seite / Seite empfehlen

Das Wetter in ...